Time;durP1;ratioP1;P1;durP2;ratioP2;P2;SDS_P1;SDS_P2;PMS_P1;PMS_P2;Temp;Humidity;BMP_temperature;BMP_pressure;BME280_temperature;BME280_humidity;BME280_pressure;Samples;Min_cycle;Max_cycle;Signal;HPM_P1;HPM_P2
2022/11/04 00:01:52;;;;;;;2.08;1.52;;;12.20;88.80;;;;;;5000118;28;20044;-61
2022/11/04 00:04:20;;;;;;;2.95;1.45;;;12.20;88.50;;;;;;5003808;28;20053;-62
2022/11/04 00:06:46;;;;;;;1.65;1.40;;;12.20;88.10;;;;;;4999558;28;20046;-63
2022/11/04 00:09:20;;;;;;;1.73;1.20;;;12.20;87.80;;;;;;5006422;28;20121;-63
2022/11/04 00:14:31;;;;;;;1.60;1.27;;;12.20;87.30;;;;;;5007199;28;20049;-62
2022/11/04 00:28:41;;;;;;;1.30;1.10;;;12.20;87.10;;;;;;5007278;28;20061;-63
2022/11/04 00:33:48;;;;;;;2.20;1.02;;;12.10;86.60;;;;;;5006600;28;20036;-62
2022/11/04 00:36:13;;;;;;;1.73;0.70;;;12.10;86.60;;;;;;5004593;28;20029;-63
2022/11/04 00:38:39;;;;;;;4.05;1.00;;;12.20;86.60;;;;;;5005814;28;20042;-61
2022/11/04 00:41:24;;;;;;;1.02;0.80;;;12.20;86.70;;;;;;5004616;28;20435;-61
2022/11/04 00:44:00;;;;;;;0.82;0.82;;;12.10;86.60;;;;;;5005003;28;20038;-62
2022/11/04 00:46:28;;;;;;;2.45;1.00;;;12.10;86.60;;;;;;5001490;28;20037;-62
2022/11/04 00:48:54;;;;;;;1.25;0.90;;;12.20;86.50;;;;;;5006854;28;20073;-63
2022/11/04 00:51:20;;;;;;;0.93;0.80;;;12.20;86.40;;;;;;4999779;28;20034;-63
2022/11/04 00:53:46;;;;;;;0.80;0.80;;;12.10;86.30;;;;;;5005818;28;20125;-63
2022/11/04 00:56:11;;;;;;;1.77;0.90;;;12.10;86.00;;;;;;4998429;28;20041;-63
2022/11/04 00:58:37;;;;;;;0.80;0.77;;;12.10;86.20;;;;;;5003989;28;20088;-63
2022/11/04 01:01:10;;;;;;;0.90;0.70;;;12.10;86.10;;;;;;5004101;28;20525;-62
2022/11/04 01:03:36;;;;;;;1.20;0.98;;;12.10;86.00;;;;;;5004326;28;20065;-63
2022/11/04 01:06:02;;;;;;;1.05;0.90;;;12.00;86.00;;;;;;5000925;28;20169;-62
2022/11/04 01:08:28;;;;;;;1.42;1.00;;;12.00;86.00;;;;;;5001214;28;20042;-61
2022/11/04 01:10:54;;;;;;;1.48;0.85;;;12.00;86.10;;;;;;5005454;28;20041;-61
2022/11/04 01:13:19;;;;;;;0.98;0.90;;;12.00;86.30;;;;;;5007110;28;20049;-62
2022/11/04 01:15:45;;;;;;;0.65;0.65;;;12.00;86.40;;;;;;5006913;28;20034;-61
2022/11/04 01:18:11;;;;;;;1.25;1.15;;;12.00;86.40;;;;;;5008805;28;20172;-62
2022/11/04 01:20:36;;;;;;;2.53;1.00;;;12.00;86.50;;;;;;5006018;28;20034;-61
2022/11/04 01:23:02;;;;;;;1.55;0.80;;;12.00;86.60;;;;;;4999451;28;20107;-62
2022/11/04 01:25:27;;;;;;;1.27;1.05;;;12.00;86.60;;;;;;5000162;28;20033;-63
2022/11/04 01:27:54;;;;;;;2.35;1.13;;;12.00;86.70;;;;;;5002733;28;20172;-61
2022/11/04 01:30:20;;;;;;;1.10;1.00;;;12.00;86.70;;;;;;5000246;28;20030;-64
2022/11/04 01:32:45;;;;;;;1.15;0.90;;;12.00;86.70;;;;;;5000906;28;20038;-63
2022/11/04 01:35:11;;;;;;;1.20;1.10;;;12.00;86.70;;;;;;5004211;28;20083;-63
2022/11/04 01:37:36;;;;;;;1.13;1.02;;;12.00;86.70;;;;;;5005122;28;20168;-62
2022/11/04 01:40:02;;;;;;;1.20;0.80;;;12.00;86.70;;;;;;5006018;28;20063;-61
2022/11/04 01:42:28;;;;;;;2.67;1.25;;;12.00;86.70;;;;;;5004183;28;20041;-62
2022/11/04 01:44:58;;;;;;;0.95;0.80;;;12.00;86.70;;;;;;5000087;28;20457;-60
2022/11/04 01:47:34;;;;;;;1.02;0.70;;;12.00;86.60;;;;;;5001205;28;20128;-62
2022/11/04 01:50:07;;;;;;;3.13;1.00;;;12.00;86.60;;;;;;5004836;28;20579;-61
2022/11/04 01:52:56;;;;;;;0.82;0.82;;;12.00;86.60;;;;;;5000506;28;20042;-62
2022/11/04 01:55:26;;;;;;;0.80;0.80;;;12.00;86.40;;;;;;5001267;28;20058;-63
2022/11/04 01:57:57;;;;;;;1.27;0.80;;;12.00;86.40;;;;;;5000010;28;20038;-62
2022/11/04 02:00:23;;;;;;;0.60;0.60;;;12.00;86.40;;;;;;5002148;28;20041;-63
2022/11/04 02:03:17;;;;;;;0.73;0.73;;;12.00;86.30;;;;;;4999783;28;20038;-61
2022/11/04 02:05:43;;;;;;;1.23;0.82;;;12.00;86.20;;;;;;5000870;28;20042;-63
2022/11/04 02:08:11;;;;;;;0.80;0.80;;;12.00;86.20;;;;;;5000438;28;20099;-62
2022/11/04 02:10:39;;;;;;;1.67;0.70;;;12.00;86.20;;;;;;4995168;28;20038;-64
2022/11/04 02:13:05;;;;;;;0.70;0.70;;;12.00;86.30;;;;;;5001262;28;20036;-61
2022/11/04 02:15:49;;;;;;;1.13;1.00;;;12.00;86.20;;;;;;5002321;28;20030;-62
2022/11/04 02:18:24;;;;;;;0.70;0.70;;;12.00;86.20;;;;;;5001618;28;20042;-63
2022/11/04 02:21:16;;;;;;;1.60;0.60;;;11.90;86.10;;;;;;5003338;28;20121;-62
2022/11/04 02:24:06;;;;;;;0.80;0.80;;;11.90;86.10;;;;;;5002288;28;20033;-63
2022/11/04 02:27:08;;;;;;;0.82;0.70;;;11.90;86.10;;;;;;5000772;28;20041;-64
2022/11/04 02:29:43;;;;;;;0.82;0.50;;;11.80;85.90;;;;;;5002184;28;20041;-62
2022/11/04 02:32:29;;;;;;;0.60;0.60;;;11.80;85.90;;;;;;5001204;28;20088;-61
2022/11/04 02:35:10;;;;;;;0.40;0.40;;;11.80;85.90;;;;;;5004935;28;20056;-61
2022/11/04 02:37:57;;;;;;;0.32;0.32;;;11.80;85.60;;;;;;5002933;28;20515;-61
2022/11/04 02:40:49;;;;;;;0.85;0.55;;;11.80;85.50;;;;;;5005593;28;20026;-63
2022/11/04 02:43:30;;;;;;;0.40;0.38;;;11.80;85.40;;;;;;5004122;28;20577;-63
2022/11/04 02:46:03;;;;;;;0.40;0.30;;;11.80;85.40;;;;;;5005190;28;20048;-61
2022/11/04 02:49:00;;;;;;;1.10;0.43;;;11.70;85.50;;;;;;5003917;28;20070;-63
2022/11/04 02:51:28;;;;;;;1.23;0.30;;;11.70;85.30;;;;;;5005347;28;20121;-61
2022/11/04 02:54:04;;;;;;;2.13;0.47;;;11.70;85.40;;;;;;5000999;28;20022;-63
2022/11/04 02:56:36;;;;;;;0.82;0.25;;;11.70;85.40;;;;;;4999685;28;20187;-60
2022/11/04 02:59:06;;;;;;;0.40;0.20;;;11.70;85.30;;;;;;5000174;28;20033;-62
2022/11/04 03:01:35;;;;;;;1.67;0.28;;;11.60;85.20;;;;;;5000299;28;20030;-61
2022/11/04 03:04:08;;;;;;;0.60;0.28;;;11.70;85.20;;;;;;4996388;28;20040;-63
2022/11/04 03:06:35;;;;;;;2.88;0.40;;;11.60;85.30;;;;;;4997155;28;20041;-62
2022/11/04 03:09:02;;;;;;;0.30;0.28;;;11.60;85.20;;;;;;5001181;28;20099;-63
2022/11/04 03:11:29;;;;;;;0.20;0.20;;;11.60;85.20;;;;;;4995567;28;20723;-62
2022/11/04 03:14:01;;;;;;;0.28;0.20;;;11.70;85.10;;;;;;4999185;28;20041;-62
2022/11/04 03:16:41;;;;;;;0.52;0.20;;;11.60;84.80;;;;;;4998075;28;20042;-62
2022/11/04 03:19:31;;;;;;;0.63;0.20;;;11.60;84.80;;;;;;5001574;28;20052;-62
2022/11/04 03:22:11;;;;;;;0.17;0.10;;;11.60;84.60;;;;;;5000284;28;20048;-63
2022/11/04 03:24:37;;;;;;;0.30;0.25;;;11.60;84.70;;;;;;4998141;28;20143;-63
2022/11/04 03:27:23;;;;;;;0.93;0.20;;;11.60;84.90;;;;;;4997080;28;20045;-62
2022/11/04 03:30:06;;;;;;;0.20;0.20;;;11.60;84.60;;;;;;4999559;28;20504;-61
2022/11/04 03:33:01;;;;;;;0.25;0.25;;;11.50;84.50;;;;;;5000281;28;20809;-61
2022/11/04 03:35:28;;;;;;;0.30;0.20;;;11.50;84.40;;;;;;4997369;28;20445;-63
2022/11/04 03:37:53;;;;;;;0.30;0.20;;;11.50;84.60;;;;;;4996893;28;20038;-64
2022/11/04 03:40:20;;;;;;;0.32;0.10;;;11.50;84.70;;;;;;4998253;28;20064;-63
2022/11/04 03:43:00;;;;;;;0.20;0.13;;;11.50;84.60;;;;;;4996342;28;20048;-61
2022/11/04 03:45:26;;;;;;;0.20;0.20;;;11.50;84.50;;;;;;4997185;28;20120;-62
2022/11/04 03:47:52;;;;;;;0.28;0.20;;;11.40;84.50;;;;;;4999391;28;20061;-63
2022/11/04 03:50:46;;;;;;;0.20;0.20;;;11.40;84.60;;;;;;4997643;28;20026;-62
2022/11/04 03:53:13;;;;;;;0.30;0.20;;;11.40;84.20;;;;;;4990148;28;20048;-63
2022/11/04 03:56:01;;;;;;;0.20;0.20;;;11.40;84.50;;;;;;4996521;28;20049;-63
2022/11/04 03:58:58;;;;;;;0.55;0.25;;;11.40;84.30;;;;;;5000341;28;20137;-63
2022/11/04 04:01:47;;;;;;;0.75;0.20;;;11.40;84.50;;;;;;5000082;28;20045;-62
2022/11/04 04:04:30;;;;;;;1.08;0.20;;;11.40;84.30;;;;;;4998423;28;20375;-63
2022/11/04 04:07:10;;;;;;;0.20;0.20;;;11.40;84.30;;;;;;4998974;28;20577;-61
2022/11/04 04:10:02;;;;;;;0.20;0.20;;;11.40;84.50;;;;;;4998358;28;20129;-61
2022/11/04 04:12:40;;;;;;;0.30;0.20;;;11.30;84.50;;;;;;4994346;28;20049;-64
2022/11/04 04:15:16;;;;;;;0.10;0.10;;;11.40;84.50;;;;;;4995858;28;20042;-62
2022/11/04 04:17:53;;;;;;;1.50;0.20;;;11.30;84.60;;;;;;5002775;28;20125;-61
2022/11/04 04:20:21;;;;;;;0.45;0.20;;;11.30;84.60;;;;;;4999143;28;20038;-61
2022/11/04 04:22:55;;;;;;;0.30;0.30;;;11.30;84.70;;;;;;4999660;28;20038;-62
2022/11/04 04:28:11;;;;;;;0.20;0.20;;;11.30;84.70;;;;;;4997273;28;20358;-62
2022/11/04 04:30:40;;;;;;;0.25;0.25;;;11.30;84.70;;;;;;4999298;28;20031;-62
2022/11/04 04:33:10;;;;;;;0.30;0.30;;;11.30;84.80;;;;;;4998316;28;20123;-62
2022/11/04 04:35:51;;;;;;;0.80;0.20;;;11.30;84.90;;;;;;4998973;28;20030;-63
2022/11/04 04:47:18;;;;;;;0.40;0.20;;;11.30;85.00;;;;;;5002051;28;20069;-63
2022/11/04 04:49:55;;;;;;;0.47;0.20;;;11.30;85.10;;;;;;5003554;28;20644;-62
2022/11/04 04:52:23;;;;;;;1.13;0.20;;;11.30;85.00;;;;;;4998326;28;20765;-63
2022/11/04 04:54:48;;;;;;;0.20;0.20;;;11.30;85.00;;;;;;4999033;28;20065;-63
2022/11/04 04:57:14;;;;;;;0.30;0.30;;;11.30;85.00;;;;;;5001168;28;20036;-62
2022/11/04 04:59:40;;;;;;;0.98;0.45;;;11.30;85.00;;;;;;5000984;28;20501;-64
2022/11/04 05:02:05;;;;;;;0.40;0.38;;;11.30;85.00;;;;;;5000020;28;20037;-63
2022/11/04 05:04:31;;;;;;;0.85;0.20;;;11.30;85.00;;;;;;5002737;28;20042;-63
2022/11/04 05:06:56;;;;;;;1.55;0.20;;;11.30;85.00;;;;;;4999871;28;20033;-61
2022/11/04 05:09:22;;;;;;;0.70;0.30;;;11.30;85.00;;;;;;4998498;28;20991;-61
2022/11/04 05:11:47;;;;;;;0.43;0.20;;;11.30;85.00;;;;;;4995626;28;20034;-62
2022/11/04 05:14:13;;;;;;;2.25;1.10;;;11.30;84.90;;;;;;5003235;28;20037;-62
2022/11/04 05:16:39;;;;;;;1.63;1.48;;;11.30;84.80;;;;;;4997354;28;20038;-62
2022/11/04 05:19:04;;;;;;;1.05;1.00;;;11.30;85.00;;;;;;5004142;28;20049;-62
2022/11/04 05:21:30;;;;;;;0.43;0.40;;;11.30;85.00;;;;;;5002088;28;20041;-63
2022/11/04 05:23:55;;;;;;;0.32;0.30;;;11.30;85.00;;;;;;5000946;28;20096;-61
2022/11/04 05:26:21;;;;;;;2.25;2.03;;;11.30;85.10;;;;;;5002908;28;20371;-63
2022/11/04 05:28:46;;;;;;;25.48;14.75;;;11.30;85.10;;;;;;5002256;28;20046;-63
2022/11/04 05:31:12;;;;;;;13.18;9.02;;;11.20;85.00;;;;;;5003197;28;20077;-62
2022/11/04 05:33:38;;;;;;;5.00;4.50;;;11.30;85.00;;;;;;5003096;28;20115;-63
2022/11/04 05:36:15;;;;;;;2.78;2.58;;;11.30;85.00;;;;;;5005492;28;20608;-62
2022/11/04 05:38:41;;;;;;;6.60;5.75;;;11.20;84.80;;;;;;5005792;28;20038;-63
2022/11/04 05:41:09;;;;;;;1.35;1.10;;;11.20;84.90;;;;;;5007587;28;20034;-62
2022/11/04 05:43:35;;;;;;;0.95;0.63;;;11.20;84.80;;;;;;5006561;28;20511;-61
2022/11/04 05:46:01;;;;;;;1.88;0.32;;;11.20;84.70;;;;;;5007858;28;20033;-64
2022/11/04 05:48:27;;;;;;;0.63;0.20;;;11.20;84.60;;;;;;5003639;28;20133;-63
2022/11/04 05:50:52;;;;;;;0.55;0.50;;;11.10;84.60;;;;;;5007469;28;20516;-63
2022/11/04 05:53:18;;;;;;;3.30;0.63;;;11.10;84.60;;;;;;5005026;28;20069;-62
2022/11/04 05:55:44;;;;;;;0.38;0.38;;;11.10;84.60;;;;;;5007475;28;20037;-62
2022/11/04 05:58:09;;;;;;;1.38;0.38;;;11.00;84.70;;;;;;5007350;28;20038;-63
2022/11/04 06:00:35;;;;;;;1.20;0.70;;;11.00;84.70;;;;;;5005130;28;20490;-61
2022/11/04 06:03:01;;;;;;;1.65;1.30;;;11.00;84.90;;;;;;5004387;28;20109;-63
2022/11/04 06:05:27;;;;;;;0.98;0.60;;;11.00;85.00;;;;;;5006099;28;20053;-63
2022/11/04 06:07:53;;;;;;;1.10;0.85;;;10.90;85.00;;;;;;5005453;28;20036;-60
2022/11/04 06:10:19;;;;;;;1.10;1.00;;;10.90;85.00;;;;;;5005209;28;20049;-61
2022/11/04 06:12:45;;;;;;;1.45;0.90;;;10.80;85.00;;;;;;5000243;28;20107;-62
2022/11/04 06:15:10;;;;;;;2.45;0.70;;;10.80;85.00;;;;;;5004851;28;20417;-62
2022/11/04 06:17:36;;;;;;;0.88;0.88;;;10.80;85.20;;;;;;5005998;28;20034;-62
2022/11/04 06:20:03;;;;;;;1.40;1.10;;;10.80;85.20;;;;;;5004738;28;20170;-62
2022/11/04 06:22:28;;;;;;;2.47;0.90;;;10.80;85.30;;;;;;5004491;28;20046;-60
2022/11/04 06:24:54;;;;;;;0.88;0.80;;;10.70;85.50;;;;;;5006321;28;20044;-63
2022/11/04 06:27:19;;;;;;;2.13;0.70;;;10.70;85.50;;;;;;5004901;28;20510;-62
2022/11/04 06:29:46;;;;;;;1.63;0.98;;;10.70;85.60;;;;;;5006224;28;20124;-62
2022/11/04 06:32:15;;;;;;;1.80;1.10;;;10.70;85.70;;;;;;5006479;28;20038;-62
2022/11/04 06:34:41;;;;;;;1.27;0.90;;;10.70;85.80;;;;;;5005662;28;20053;-61
2022/11/04 06:37:08;;;;;;;3.70;1.70;;;10.60;85.90;;;;;;5003956;28;20587;-64
2022/11/04 06:39:33;;;;;;;5.03;1.33;;;10.70;86.00;;;;;;5006762;28;20042;-61
2022/11/04 06:41:59;;;;;;;5.65;3.35;;;10.60;86.00;;;;;;5004698;28;20033;-61
2022/11/04 06:44:24;;;;;;;4.38;2.58;;;10.60;86.00;;;;;;5005708;28;20041;-62
2022/11/04 06:46:50;;;;;;;3.05;1.83;;;10.60;86.20;;;;;;5006432;28;20050;-63
2022/11/04 06:49:27;;;;;;;1.60;1.50;;;10.60;86.20;;;;;;5006555;28;20072;-63
2022/11/04 06:51:53;;;;;;;1.40;0.80;;;10.60;86.20;;;;;;5004755;28;20080;-63
2022/11/04 06:54:18;;;;;;;1.00;0.75;;;10.60;86.20;;;;;;5008107;28;20421;-63
2022/11/04 06:56:44;;;;;;;1.95;0.80;;;10.60;86.20;;;;;;5007883;28;21219;-62
2022/11/04 06:59:18;;;;;;;1.83;1.52;;;10.60;86.90;;;;;;5008443;28;20044;-61
2022/11/04 07:01:45;;;;;;;1.20;1.10;;;10.60;86.10;;;;;;5008067;28;20638;-62
2022/11/04 07:04:10;;;;;;;1.48;1.20;;;10.60;86.00;;;;;;5007607;28;20289;-62
2022/11/04 07:06:36;;;;;;;1.80;1.00;;;10.60;86.00;;;;;;5007204;28;20536;-62
2022/11/04 07:09:03;;;;;;;1.35;1.10;;;10.60;86.00;;;;;;5006753;28;20049;-63
2022/11/04 07:11:30;;;;;;;1.40;1.30;;;10.70;86.00;;;;;;5002632;28;20038;-62
2022/11/04 07:13:56;;;;;;;1.90;1.10;;;10.60;86.00;;;;;;5007161;28;20042;-63
2022/11/04 07:16:21;;;;;;;1.23;1.13;;;10.60;86.00;;;;;;5007504;28;20030;-62
2022/11/04 07:18:48;;;;;;;1.50;1.40;;;10.70;86.10;;;;;;5007162;28;20046;-61
2022/11/04 07:21:13;;;;;;;1.40;0.80;;;10.60;86.00;;;;;;5007133;28;20489;-63
2022/11/04 07:23:39;;;;;;;1.33;0.80;;;10.70;86.10;;;;;;5007436;28;20120;-62
2022/11/04 07:26:07;;;;;;;0.90;0.90;;;10.70;86.00;;;;;;5007364;28;20571;-60
2022/11/04 07:28:33;;;;;;;1.13;0.82;;;10.70;86.00;;;;;;5006370;28;20038;-61
2022/11/04 07:31:00;;;;;;;1.00;0.90;;;10.70;86.00;;;;;;5007555;28;20026;-60
2022/11/04 07:33:26;;;;;;;1.10;1.00;;;10.70;86.00;;;;;;5006630;28;20048;-63
2022/11/04 07:35:53;;;;;;;1.17;0.80;;;10.70;86.00;;;;;;5003482;28;20037;-61
2022/11/04 07:38:22;;;;;;;2.90;1.00;;;10.70;86.20;;;;;;5003087;28;20038;-59
2022/11/04 07:40:48;;;;;;;1.67;0.93;;;10.70;86.10;;;;;;5004276;28;20041;-62
2022/11/04 07:43:15;;;;;;;2.85;0.80;;;10.70;86.00;;;;;;5004182;28;20034;-64
2022/11/04 07:45:40;;;;;;;1.10;1.00;;;10.80;86.10;;;;;;5004454;28;20056;-63
2022/11/04 07:48:06;;;;;;;0.93;0.82;;;10.80;86.20;;;;;;5005066;28;20083;-62
2022/11/04 07:50:32;;;;;;;1.40;1.20;;;10.80;86.10;;;;;;5004435;28;20030;-62
2022/11/04 07:52:59;;;;;;;3.28;0.90;;;10.80;86.00;;;;;;5003444;28;20084;-63
2022/11/04 07:55:25;;;;;;;2.63;0.70;;;10.80;86.80;;;;;;5003795;28;20520;-61
2022/11/04 07:57:52;;;;;;;0.77;0.70;;;10.80;85.90;;;;;;5002108;28;20063;-63
2022/11/04 08:00:19;;;;;;;1.17;0.70;;;10.80;85.90;;;;;;5003266;28;20402;-61
2022/11/04 08:02:45;;;;;;;1.90;0.80;;;10.80;85.80;;;;;;5004208;28;21434;-62
2022/11/04 08:05:12;;;;;;;4.57;0.90;;;10.90;85.70;;;;;;5005607;28;20041;-61
2022/11/04 08:07:37;;;;;;;2.17;0.95;;;10.90;85.60;;;;;;5002703;28;20034;-63
2022/11/04 08:10:04;;;;;;;2.15;1.05;;;10.80;85.50;;;;;;5003731;28;20040;-64
2022/11/04 08:12:31;;;;;;;2.28;1.00;;;10.90;85.60;;;;;;5001088;28;20085;-63
2022/11/04 08:14:57;;;;;;;2.90;1.42;;;10.90;85.70;;;;;;5004704;28;20111;-63
2022/11/04 08:17:23;;;;;;;1.27;1.17;;;10.90;85.70;;;;;;5004309;28;20038;-63
2022/11/04 08:19:49;;;;;;;1.70;1.52;;;10.90;85.80;;;;;;5005007;28;20048;-63
2022/11/04 08:22:14;;;;;;;5.03;1.23;;;10.90;85.90;;;;;;5004413;28;20312;-63
2022/11/04 08:24:40;;;;;;;1.75;1.20;;;10.90;86.00;;;;;;5007087;28;20077;-63
2022/11/04 08:27:09;;;;;;;2.17;1.30;;;10.90;86.00;;;;;;5008938;28;20084;-64
2022/11/04 08:29:36;;;;;;;3.33;1.20;;;10.90;86.10;;;;;;5008568;28;20399;-64
2022/11/04 08:32:01;;;;;;;2.50;1.20;;;11.00;86.10;;;;;;5008737;28;20084;-64
2022/11/04 08:34:27;;;;;;;3.13;1.20;;;11.00;86.00;;;;;;5008270;28;20042;-63
2022/11/04 08:36:56;;;;;;;3.33;1.45;;;11.10;86.00;;;;;;5007671;28;20483;-63
2022/11/04 08:39:22;;;;;;;2.00;1.75;;;11.10;85.90;;;;;;5008766;28;20038;-62
2022/11/04 08:41:49;;;;;;;2.00;1.20;;;11.10;85.90;;;;;;5006435;28;20575;-62
2022/11/04 08:44:15;;;;;;;4.72;1.52;;;11.10;85.90;;;;;;5008249;28;20489;-61
2022/11/04 08:46:43;;;;;;;3.45;1.48;;;11.10;85.90;;;;;;5007570;28;20058;-62
2022/11/04 08:49:09;;;;;;;2.88;1.42;;;11.10;85.90;;;;;;5010039;28;20088;-63
2022/11/04 08:51:37;;;;;;;2.22;1.27;;;11.10;85.80;;;;;;5006765;28;20065;-60
2022/11/04 08:54:04;;;;;;;3.80;1.10;;;11.10;85.90;;;;;;5007474;28;20034;-62
2022/11/04 08:56:31;;;;;;;1.88;1.15;;;11.20;86.60;;;;;;5006163;28;20409;-62
2022/11/04 08:58:59;;;;;;;2.88;1.50;;;11.20;85.70;;;;;;5007748;28;20034;-61
2022/11/04 09:01:25;;;;;;;3.28;1.20;;;11.10;85.70;;;;;;5003840;28;20030;-60
2022/11/04 09:03:52;;;;;;;3.10;1.20;;;11.20;85.90;;;;;;5006329;28;20505;-61
2022/11/04 09:06:23;;;;;;;2.97;1.50;;;11.20;85.90;;;;;;5008316;28;20045;-61
2022/11/04 09:08:50;;;;;;;1.55;1.45;;;11.20;85.90;;;;;;5006559;28;20651;-61
2022/11/04 09:11:16;;;;;;;1.85;1.30;;;11.20;85.90;;;;;;5005329;28;20092;-63
2022/11/04 09:13:42;;;;;;;1.80;1.20;;;11.20;85.90;;;;;;5006907;28;20042;-61
2022/11/04 09:16:10;;;;;;;6.25;3.63;;;11.20;85.90;;;;;;5008568;28;20088;-63
2022/11/04 09:18:36;;;;;;;4.07;2.20;;;11.30;85.90;;;;;;5005895;28;20030;-63
2022/11/04 09:21:04;;;;;;;4.15;1.50;;;11.30;85.90;;;;;;5008206;28;20041;-61
2022/11/04 09:23:30;;;;;;;2.83;1.60;;;11.30;85.90;;;;;;5007323;28;20080;-62
2022/11/04 09:25:57;;;;;;;7.30;5.50;;;11.30;85.80;;;;;;5008671;28;20041;-63
2022/11/04 09:28:24;;;;;;;2.50;2.28;;;11.30;85.70;;;;;;5008414;28;20053;-61
2022/11/04 09:30:49;;;;;;;1.88;1.40;;;11.40;85.70;;;;;;5008590;28;20061;-61
2022/11/04 09:33:16;;;;;;;2.40;1.25;;;11.40;85.70;;;;;;5007895;28;20062;-60
2022/11/04 09:35:41;;;;;;;4.55;2.83;;;11.40;85.60;;;;;;5006732;28;20034;-64
2022/11/04 09:38:07;;;;;;;3.92;2.13;;;11.40;85.60;;;;;;5007272;28;20026;-62
2022/11/04 09:40:36;;;;;;;3.40;1.10;;;11.40;85.50;;;;;;5007022;28;20125;-61
2022/11/04 09:43:45;;;;;;;3.47;1.40;;;11.50;85.30;;;;;;5004737;28;20026;-62
2022/11/04 09:46:12;;;;;;;2.22;1.50;;;11.60;85.00;;;;;;5007107;28;20034;-62
2022/11/04 09:48:45;;;;;;;3.25;1.48;;;11.60;85.20;;;;;;5007285;28;20046;-63
2022/11/04 09:51:12;;;;;;;3.15;1.33;;;11.60;84.80;;;;;;5006824;28;20026;-63
2022/11/04 09:53:44;;;;;;;2.15;1.05;;;11.70;84.60;;;;;;5004976;28;20030;-63
2022/11/04 09:56:19;;;;;;;2.55;1.58;;;11.70;84.60;;;;;;5008264;28;20060;-63
2022/11/04 09:58:46;;;;;;;6.80;4.63;;;11.70;84.30;;;;;;5008067;28;20864;-63
2022/11/04 10:01:18;;;;;;;2.30;1.50;;;11.80;84.50;;;;;;5006127;28;20052;-60
2022/11/04 10:04:10;;;;;;;2.67;1.40;;;11.80;84.30;;;;;;5008000;28;20497;-62
2022/11/04 10:07:13;;;;;;;2.90;1.20;;;11.90;83.60;;;;;;5005626;28;20480;-63
2022/11/04 10:09:50;;;;;;;1.67;1.00;;;11.90;83.40;;;;;;5006017;28;20050;-62
2022/11/04 10:12:40;;;;;;;1.25;0.60;;;12.00;83.60;;;;;;5003208;28;20060;-62
2022/11/04 10:15:40;;;;;;;2.53;0.90;;;12.00;83.90;;;;;;5007869;28;20058;-62
2022/11/04 10:18:28;;;;;;;4.82;1.00;;;12.10;81.70;;;;;;5005983;28;20061;-61
2022/11/04 10:21:03;;;;;;;1.60;1.00;;;12.10;82.10;;;;;;5007821;28;20089;-62
2022/11/04 10:23:39;;;;;;;1.42;0.68;;;12.10;81.90;;;;;;5005244;28;20030;-62
2022/11/04 10:26:14;;;;;;;1.70;0.70;;;12.10;81.70;;;;;;5004590;28;20560;-62
2022/11/04 10:28:44;;;;;;;1.52;0.55;;;12.20;82.00;;;;;;5006268;28;20041;-63
2022/11/04 10:31:15;;;;;;;1.27;0.50;;;12.30;81.50;;;;;;5006240;28;20053;-61
2022/11/04 10:33:51;;;;;;;2.15;0.52;;;12.30;81.30;;;;;;5005358;28;20033;-63
2022/11/04 10:36:17;;;;;;;1.17;0.50;;;12.30;80.80;;;;;;5007092;28;20046;-63
2022/11/04 10:38:45;;;;;;;0.65;0.50;;;12.40;81.00;;;;;;5007003;28;20049;-61
2022/11/04 10:41:40;;;;;;;1.05;0.40;;;12.40;80.80;;;;;;5006387;28;20401;-62
2022/11/04 10:44:15;;;;;;;0.47;0.30;;;12.40;79.40;;;;;;4997319;28;20036;-62
2022/11/04 10:47:05;;;;;;;0.73;0.30;;;12.50;80.30;;;;;;5004695;28;20038;-62
2022/11/04 10:49:49;;;;;;;2.20;0.60;;;12.50;79.60;;;;;;5007041;28;20053;-62
2022/11/04 10:52:15;;;;;;;1.65;0.50;;;12.50;80.80;;;;;;5004926;28;20115;-64
2022/11/04 10:54:47;;;;;;;2.08;0.52;;;12.50;80.30;;;;;;5005580;28;20529;-63
2022/11/04 10:57:25;;;;;;;2.13;0.70;;;12.60;80.00;;;;;;5005663;28;20061;-62
2022/11/04 10:59:55;;;;;;;1.02;0.80;;;12.60;80.40;;;;;;5005210;28;20038;-63
2022/11/04 11:02:36;;;;;;;0.60;0.40;;;12.60;79.30;;;;;;5005791;28;20350;-63
2022/11/04 11:05:31;;;;;;;1.48;0.55;;;12.60;78.20;;;;;;5006088;28;20111;-63
2022/11/04 11:07:57;;;;;;;2.53;0.47;;;12.70;78.40;;;;;;4998020;28;20053;-64
2022/11/04 11:10:28;;;;;;;0.85;0.45;;;12.70;78.90;;;;;;5006068;28;21406;-62
2022/11/04 11:13:00;;;;;;;1.65;0.43;;;12.70;78.20;;;;;;5001658;28;20088;-61
2022/11/04 11:15:35;;;;;;;2.53;0.50;;;12.60;78.40;;;;;;5007026;28;20057;-63
2022/11/04 11:18:06;;;;;;;1.55;0.47;;;12.70;77.70;;;;;;5004215;28;20048;-63
2022/11/04 11:20:36;;;;;;;0.70;0.50;;;12.70;77.50;;;;;;5005880;28;20129;-63
2022/11/04 11:23:08;;;;;;;0.65;0.50;;;12.70;77.90;;;;;;5004777;28;20048;-63
2022/11/04 11:25:35;;;;;;;3.70;0.75;;;12.70;77.80;;;;;;5005883;28;20092;-63
2022/11/04 11:28:19;;;;;;;2.92;1.60;;;12.70;79.10;;;;;;5004685;28;20081;-61
2022/11/04 11:30:45;;;;;;;1.13;0.80;;;12.70;77.20;;;;;;5003633;28;20152;-62
2022/11/04 11:33:17;;;;;;;2.00;0.60;;;12.80;78.10;;;;;;5006033;28;20034;-63
2022/11/04 11:35:51;;;;;;;1.05;0.35;;;12.80;78.70;;;;;;5005871;28;20044;-63
2022/11/04 11:38:19;;;;;;;2.53;0.70;;;12.80;77.50;;;;;;5006370;28;20125;-61
2022/11/04 11:40:47;;;;;;;1.35;0.60;;;12.90;77.80;;;;;;5005305;28;20253;-62
2022/11/04 11:43:23;;;;;;;1.85;1.00;;;12.90;77.70;;;;;;5005692;28;20030;-62
2022/11/04 11:45:49;;;;;;;1.15;0.80;;;12.90;76.50;;;;;;5003343;28;20040;-62
2022/11/04 11:48:41;;;;;;;1.45;0.80;;;12.90;77.20;;;;;;5007653;28;20030;-62
2022/11/04 11:51:10;;;;;;;1.95;0.77;;;12.90;76.10;;;;;;4997438;28;20034;-64
2022/11/04 11:53:39;;;;;;;1.30;1.00;;;12.90;76.60;;;;;;5006059;28;20036;-63
2022/11/04 11:56:37;;;;;;;2.00;0.50;;;13.00;76.80;;;;;;5004686;28;20033;-62
2022/11/04 11:59:14;;;;;;;0.65;0.40;;;13.00;75.60;;;;;;5005500;28;20029;-64
2022/11/04 12:01:59;;;;;;;2.72;0.60;;;13.00;76.10;;;;;;5005109;28;20049;-63
2022/11/04 12:04:25;;;;;;;1.30;0.40;;;13.00;75.30;;;;;;5004296;28;20038;-64
2022/11/04 12:07:08;;;;;;;0.98;0.43;;;13.00;76.30;;;;;;5005725;28;20041;-63
2022/11/04 12:10:12;;;;;;;1.85;0.75;;;13.00;75.90;;;;;;5006561;28;20038;-63
2022/11/04 12:12:55;;;;;;;2.00;1.00;;;13.00;75.80;;;;;;4980074;28;20030;-62
2022/11/04 12:15:39;;;;;;;2.33;0.57;;;13.00;76.40;;;;;;5005528;28;20030;-64
2022/11/04 12:18:36;;;;;;;3.50;0.60;;;13.10;75.30;;;;;;5004652;28;20041;-64
2022/11/04 12:21:18;;;;;;;2.92;0.60;;;13.10;74.40;;;;;;5003973;28;20367;-64
2022/11/04 12:24:21;;;;;;;2.80;0.95;;;13.10;75.40;;;;;;5005984;28;20085;-64
2022/11/04 12:26:50;;;;;;;3.20;0.60;;;13.10;75.00;;;;;;4982223;28;20460;-63
2022/11/04 12:29:52;;;;;;;3.05;0.70;;;13.20;75.30;;;;;;5003859;28;20045;-63
2022/11/04 12:32:43;;;;;;;0.75;0.50;;;13.20;74.50;;;;;;5004489;28;20117;-64
2022/11/04 12:35:14;;;;;;;1.80;0.85;;;13.10;74.10;;;;;;4985871;28;20409;-61
2022/11/04 12:38:01;;;;;;;2.05;0.50;;;13.10;74.90;;;;;;5005916;28;20149;-64
2022/11/04 12:40:32;;;;;;;1.83;0.40;;;13.10;75.10;;;;;;5005814;28;20037;-61
2022/11/04 12:43:20;;;;;;;6.88;1.20;;;13.10;75.10;;;;;;5007170;28;20223;-63
2022/11/04 12:46:01;;;;;;;2.15;1.23;;;13.20;74.40;;;;;;5007371;28;20041;-62
2022/11/04 12:48:38;;;;;;;1.40;0.85;;;13.20;74.90;;;;;;5006930;28;20044;-64
2022/11/04 12:51:23;;;;;;;1.73;0.50;;;13.20;75.30;;;;;;5007112;28;20022;-60
2022/11/04 12:53:51;;;;;;;5.05;0.47;;;13.20;75.30;;;;;;5005503;28;20056;-62
2022/11/04 12:56:19;;;;;;;2.05;0.65;;;13.30;75.30;;;;;;5003431;28;20034;-63
2022/11/04 12:59:00;;;;;;;2.25;0.57;;;13.30;75.20;;;;;;5002709;28;20034;-61
2022/11/04 13:01:49;;;;;;;2.03;0.80;;;13.30;74.70;;;;;;5005390;28;20132;-64
2022/11/04 13:04:27;;;;;;;3.10;0.80;;;13.30;73.70;;;;;;5003623;28;20046;-63
2022/11/04 13:07:08;;;;;;;1.60;0.70;;;13.40;74.20;;;;;;5004143;28;20056;-63
2022/11/04 13:09:55;;;;;;;1.80;0.52;;;13.40;74.00;;;;;;5005538;28;20069;-62
2022/11/04 13:12:25;;;;;;;1.08;0.60;;;13.40;73.80;;;;;;5004749;28;20415;-64
2022/11/04 13:14:58;;;;;;;1.50;0.80;;;13.50;74.20;;;;;;5008541;28;20050;-62
2022/11/04 13:17:32;;;;;;;1.95;0.40;;;13.50;74.30;;;;;;5008391;28;20518;-64
2022/11/04 13:20:02;;;;;;;3.47;0.50;;;13.50;73.90;;;;;;5008819;28;20042;-64
2022/11/04 13:22:32;;;;;;;3.60;0.60;;;13.50;74.00;;;;;;5007539;28;20033;-62
2022/11/04 13:25:14;;;;;;;3.95;0.68;;;13.60;73.50;;;;;;5008813;28;20579;-63
2022/11/04 13:27:44;;;;;;;3.13;0.47;;;13.60;72.60;;;;;;5007557;28;20570;-62
2022/11/04 13:30:20;;;;;;;2.15;0.40;;;13.70;72.60;;;;;;5009235;28;20046;-63
2022/11/04 13:33:07;;;;;;;1.50;0.50;;;13.70;72.00;;;;;;5007362;28;20410;-62
2022/11/04 13:35:43;;;;;;;2.00;0.50;;;13.70;71.70;;;;;;5007187;28;20034;-63
2022/11/04 13:38:13;;;;;;;2.70;0.55;;;13.80;72.20;;;;;;5007961;28;20544;-64
2022/11/04 13:40:53;;;;;;;3.30;0.50;;;13.70;72.60;;;;;;5007246;28;20072;-63